Date,TemperatureHighF,TemperatureAvgF,TemperatureLowF,DewpointHighF,DewpointAvgF,DewpointLowF,HumidityHigh,HumidityAvg,HumidityLow,PressureMaxIn,PressureMinIn,WindSpeedMaxMPH,WindSpeedAvgMPH,GustSpeedMaxMPH,PrecipitationSumIn
2013-3-1,38.2,33.1,28.4,31.8,28.8,24.6,95,84,72,29.80,29.60,8,1,10,0.00
2013-3-2,31.4,28.5,25.0,24.9,23.1,20.0,85,80,72,29.79,29.72,9,2,9,0.00
2013-3-3,31.3,25.5,22.3,22.9,18.2,14.9,83,74,64,29.80,29.70,11,2,11,0.00
2013-3-4,32.9,27.0,22.2,22.2,19.5,15.6,83,73,60,29.93,29.78,12,3,14,0.00
2013-3-5,43.4,31.7,26.8,28.3,24.4,21.4,90,75,52,30.04,29.93,9,1,9,0.00
2013-3-6,41.9,35.2,29.0,34.1,29.2,25.4,89,79,69,30.02,29.90,11,1,11,0.00
2013-3-7,40.1,33.5,29.1,31.5,27.3,24.7,94,78,57,30.12,30.00,6,1,7,0.01
2013-3-8,38.9,31.3,26.5,32.6,27.4,23.8,94,86,73,30.26,30.05,9,1,11,0.24
2013-3-9,53.9,35.3,23.5,31.7,25.3,20.6,92,71,34,30.32,30.23,8,0,8,0.20
2013-3-10,55.6,38.0,23.2,33.8,27.3,21.2,93,70,29,30.34,30.21,7,0,7,0.00
2013-3-11,49.1,40.3,31.9,43.6,36.5,29.8,95,87,67,30.27,30.00,10,0,10,0.00
2013-3-12,52.6,46.2,33.0,51.2,44.5,31.6,95,94,90,30.00,29.63,11,0,11,1.10
2013-3-13,44.6,35.2,29.5,34.3,29.6,24.6,95,82,47,29.87,29.77,9,1,12,0.00
2013-3-14,35.7,28.3,21.3,26.1,13.2,6.1,87,55,30,29.95,29.83,19,3,19,0.01
2013-3-15,37.1,30.6,20.7,31.3,21.5,13.0,88,69,55,29.96,29.70,13,1,13,0.00
2013-3-16,33.8,29.5,25.4,27.5,23.6,18.9,93,79,60,29.91,29.75,7,0,7,0.02
2013-3-17,33.4,26.7,17.6,24.2,17.6,12.6,93,70,45,30.31,29.91,12,1,12,0.03
2013-3-18,31.6,23.9,13.8,25.0,17.7,9.6,94,79,46,30.39,29.99,5,0,6,0.01
2013-3-19,43.2,32.2,26.0,37.1,30.1,24.5,95,92,74,29.99,29.67,7,0,8,0.20
2013-3-20,39.9,29.4,20.9,25.4,21.8,15.9,95,76,39,29.84,29.75,13,1,18,0.10
2013-3-21,35.9,25.7,18.0,21.8,15.8,10.6,93,69,39,29.82,29.64,9,1,10,0.00
2013-3-22,35.1,28.1,18.0,24.9,20.1,13.8,90,72,57,29.87,29.71,15,1,15,0.00
2013-3-23,40.1,32.9,29.1,24.4,21.9,19.4,77,64,47,29.93,29.82,13,2,13,0.00
2013-3-24,42.1,32.1,21.4,29.6,23.1,18.4,90,71,47,29.94,29.70,9,0,9,0.00
2013-3-25,40.6,35.1,31.2,30.6,26.6,23.8,85,71,56,29.70,29.46,5,0,7,0.00
2013-3-26,46.9,37.2,28.7,31.9,28.5,25.6,88,72,47,29.87,29.59,12,1,12,0.00
2013-3-27,48.0,34.2,24.4,32.8,27.7,22.2,94,79,44,29.99,29.87,16,1,16,0.00
2013-3-28,45.2,38.2,29.6,33.9,30.9,27.7,94,76,59,30.13,29.96,8,1,9,0.00
2013-3-29,46.3,38.9,28.8,32.6,29.9,26.5,93,71,49,30.15,30.07,9,1,9,0.00
2013-3-30,54.2,37.5,25.1,31.6,26.0,19.8,95,68,29,30.17,30.06,11,0,11,0.00
2013-3-31,54.4,38.7,24.9,42.0,30.8,21.3,99,76,41,30.11,29.68,18,0,19,0.20